South Gate, California
Current Conditions -  °F | °C
As of 10:47 AM on Tuesday 21 Oct 2014 (Local Time) from KCQT Reporting Station
Haze Haze  
Wind Chill: 73°   Ceiling: Unl
Heat Index: 73°   Visibility: 5mi
Dew Point: 57°   Wind: 5mph
Humidity: 57%   Direction: NA
Pressure: 29.91"   Gusts: NA
Location:  33.96°N, 118.2°W
Report Text: KCQT 211747Z AUTO VRB04KT 5SM HZ CLR 23/14 A2991 RMK AO2 SLP125 T02280139 10228 20183 58002
Loading
Personal Weather Stations






























Interactive Weather Map
Tropical Storm Tracking
New forecast layout! Learn more

10-Day Weather Forecast

Advertisements
Track Severe Weather on mobile